Aeroporto :
LOGIN :

Iscrizione | Disclaimer

   EN    FR    IT 

 










Sommario :    VFR   VFR Marginale   IFR   IFR Intensivo   IFR Molto Intensivo
Visibilità : 
Base nubi : 
>= 8 km
>= 3000ft
5 / 8 km
1000 / 3000 ft
1500m / 5 km
500 / 1000 ft
800 / 1500m
200 / 500 ft
< 800m
< 200 ft
Simboli :   Temporali  Nebbia  Neve Forte  Precipitazioni Forti  Vento > 20 kt
SIGMETs :   Varie  Temporali  Ghiacco  Turbolenza  Onda orograficha  Ceneri Vulcaniche






- Altitudine del aeroporto : 121 ft
- Codice IATA : HUY


EGNJ - Humberside

ULTIMO METAR :
  • 271750Z 28011KT 9999 FEW028 05/00 Q1006

METARs OBSOLETI :
  • 271720Z 28013KT 9999 FEW036 06/00 Q1005
  • 271650Z 29015KT 9999 FEW032 07/M02 Q1004
  • 271620Z 29019G29KT 9999 FEW037 07/M02 Q1004
  • 271550Z 30018KT 9999 SCT036 07/M02 Q1003
  • 271520Z 30018KT 9999 SCT039 07/M02 Q1002

TAF TAF EGNJ
Valido dal 27 a 18 ore il 28 a 03 ore UTC


271701Z 2718/2803 28016KT 9999 SCT030
BECMG 2801/2803 22008KT
ATIS : +44 1652 682 020



MetMap, La meteo Aeronautica in un colpo d'occhio ! - Copyright ORBIFLY Dicembre 2007 - Disclaimer

ORBIFLY MET'MAP TEAM :

Programmazione e sviluppo : Alexandra Zaïnal
Concezione : Baudouin d'Aumeries
Aiuto per la programmazione : Marc-Olivier Méhu
Supporto tecnico e logistico : Manuel Goepfert
Aiuto per la traduzione : Arnaldo La Scala

Contatto : metmap@orbifly.com




FONTI E CREDITI :

   NOAA